Time;durP1;ratioP1;P1;durP2;ratioP2;P2;SDS_P1;SDS_P2;PMS_P1;PMS_P2;Temp;Humidity;BMP_temperature;BMP_pressure;BME280_temperature;BME280_humidity;BME280_pressure;Samples;Min_cycle;Max_cycle;Signal;HPM_P1;HPM_P2
2023/04/03 00:01:09;;;;;;;3.25;1.23;;;3.00;99.90;;;;;;7367454;19;20882;-69
2023/04/03 00:03:36;;;;;;;3.03;1.70;;;3.00;99.90;;;;;;7368746;19;20018;-65
2023/04/03 00:06:05;;;;;;;4.70;1.73;;;3.00;99.90;;;;;;7368466;19;20014;-68
2023/04/03 00:08:32;;;;;;;4.13;1.40;;;3.00;99.90;;;;;;7371022;19;20018;-64
2023/04/03 00:10:59;;;;;;;3.05;1.25;;;2.90;99.90;;;;;;7369247;19;20105;-65
2023/04/03 00:13:25;;;;;;;1.65;0.88;;;2.90;99.90;;;;;;7370808;19;20047;-64
2023/04/03 00:15:52;;;;;;;3.25;1.10;;;2.90;99.90;;;;;;7371564;19;20646;-64
2023/04/03 00:18:19;;;;;;;5.03;1.45;;;2.90;99.90;;;;;;7368601;19;20496;-64
2023/04/03 00:20:45;;;;;;;2.85;1.50;;;2.80;99.90;;;;;;7373521;19;20387;-64
2023/04/03 00:23:11;;;;;;;4.35;1.90;;;2.80;99.90;;;;;;7366442;19;20050;-67
2023/04/03 00:25:38;;;;;;;2.33;1.30;;;2.80;99.90;;;;;;7375058;19;20017;-69
2023/04/03 00:28:05;;;;;;;2.17;1.20;;;2.70;99.90;;;;;;7373192;19;20593;-68
2023/04/03 00:30:32;;;;;;;6.85;1.95;;;2.70;99.90;;;;;;7377704;19;20014;-69
2023/04/03 00:33:00;;;;;;;2.80;1.20;;;2.70;99.90;;;;;;7377953;19;20113;-70
2023/04/03 00:35:27;;;;;;;2.38;1.20;;;2.60;99.90;;;;;;7373698;19;20026;-69
2023/04/03 00:37:55;;;;;;;3.15;1.65;;;2.60;99.90;;;;;;7366643;19;20015;-70
2023/04/03 00:40:24;;;;;;;2.90;1.27;;;2.60;99.90;;;;;;7363305;19;20036;-69
2023/04/03 00:42:58;;;;;;;2.97;1.30;;;2.50;99.90;;;;;;7365308;19;20015;-70
2023/04/03 00:45:34;;;;;;;4.38;1.55;;;2.50;99.90;;;;;;7370801;19;20022;-69
2023/04/03 00:48:05;;;;;;;6.28;2.90;;;2.50;99.90;;;;;;7365563;19;20023;-69
2023/04/03 00:50:35;;;;;;;3.97;1.33;;;2.50;99.90;;;;;;7369128;19;20019;-69
2023/04/03 00:53:03;;;;;;;2.58;1.23;;;2.40;99.90;;;;;;7374360;19;20018;-70
2023/04/03 00:55:30;;;;;;;4.82;1.40;;;2.40;99.90;;;;;;7372665;19;21406;-66
2023/04/03 00:57:57;;;;;;;5.28;1.88;;;2.30;99.90;;;;;;7377914;19;20018;-65
2023/04/03 01:00:24;;;;;;;3.90;1.50;;;2.30;99.90;;;;;;7370709;19;20026;-65
2023/04/03 01:02:59;;;;;;;3.33;1.20;;;2.30;99.90;;;;;;7368386;19;20060;-69
2023/04/03 01:05:26;;;;;;;2.08;1.17;;;2.20;99.90;;;;;;7372008;19;20856;-69
2023/04/03 01:07:53;;;;;;;4.20;1.30;;;2.20;99.90;;;;;;7373928;19;20023;-69
2023/04/03 01:10:20;;;;;;;4.18;1.48;;;2.10;99.90;;;;;;7374751;19;20018;-64
2023/04/03 01:12:50;;;;;;;2.17;1.17;;;2.10;99.90;;;;;;7378462;19;20022;-65
2023/04/03 01:15:34;;;;;;;6.68;1.88;;;2.10;99.90;;;;;;7376654;19;20018;-64
2023/04/03 01:18:01;;;;;;;3.63;1.38;;;2.10;99.90;;;;;;7379111;19;20022;-65
2023/04/03 01:20:35;;;;;;;5.05;1.95;;;2.00;99.90;;;;;;7376502;19;20022;-66
2023/04/03 01:23:36;;;;;;;3.30;1.30;;;2.00;99.90;;;;;;7376565;19;20018;-65
2023/04/03 01:26:03;;;;;;;4.05;1.30;;;2.00;99.90;;;;;;7374467;19;20022;-65
2023/04/03 01:28:32;;;;;;;3.65;1.50;;;1.90;99.90;;;;;;7378315;19;20047;-66
2023/04/03 01:31:15;;;;;;;3.75;1.77;;;1.90;99.90;;;;;;7373611;19;20027;-69
2023/04/03 01:33:43;;;;;;;5.82;1.40;;;1.90;99.90;;;;;;7377109;19;20683;-69
2023/04/03 01:36:13;;;;;;;4.53;1.80;;;1.80;99.90;;;;;;7371821;19;20038;-69
2023/04/03 01:38:41;;;;;;;4.28;1.50;;;1.80;99.90;;;;;;7377308;19;20036;-69
2023/04/03 01:41:07;;;;;;;5.32;1.92;;;1.80;99.90;;;;;;7372045;19;20022;-69
2023/04/03 01:43:34;;;;;;;3.35;1.67;;;1.70;99.90;;;;;;7376212;19;20026;-69
2023/04/03 01:46:05;;;;;;;5.22;1.55;;;1.70;99.90;;;;;;7373490;19;20018;-69
2023/04/03 01:48:31;;;;;;;3.33;1.30;;;1.70;99.90;;;;;;7369209;19;20023;-69
2023/04/03 01:50:59;;;;;;;4.40;1.70;;;1.70;99.90;;;;;;7376390;19;20556;-69
2023/04/03 01:53:37;;;;;;;3.33;1.60;;;1.60;99.90;;;;;;7375381;19;20015;-65
2023/04/03 01:56:04;;;;;;;4.40;2.05;;;1.60;99.90;;;;;;7373258;19;20052;-65
2023/04/03 01:58:32;;;;;;;3.03;1.60;;;1.50;99.90;;;;;;7376475;19;20018;-65
2023/04/03 02:00:58;;;;;;;5.03;1.83;;;1.50;99.90;;;;;;7373356;19;20039;-65
2023/04/03 02:03:24;;;;;;;6.80;2.03;;;1.50;99.90;;;;;;7371126;19;20025;-65
2023/04/03 02:05:50;;;;;;;4.68;1.85;;;1.50;99.90;;;;;;7373679;19;20018;-65
2023/04/03 02:08:20;;;;;;;3.42;1.40;;;1.50;99.90;;;;;;7370143;19;20043;-65
2023/04/03 02:10:50;;;;;;;2.38;1.58;;;1.50;99.90;;;;;;7367842;19;20780;-65
2023/04/03 02:13:18;;;;;;;4.95;2.05;;;1.40;99.90;;;;;;7374481;19;20131;-65
2023/04/03 02:15:45;;;;;;;4.68;1.85;;;1.40;99.90;;;;;;7376432;19;20931;-65
2023/04/03 02:18:13;;;;;;;6.97;1.92;;;1.40;99.90;;;;;;7375024;19;20018;-64
2023/04/03 02:20:40;;;;;;;4.90;1.90;;;1.40;99.90;;;;;;7371482;19;20027;-65
2023/04/03 02:23:06;;;;;;;4.57;1.88;;;1.40;99.90;;;;;;7374048;19;20014;-65
2023/04/03 02:25:33;;;;;;;3.58;1.88;;;1.40;99.90;;;;;;7373741;19;20019;-66
2023/04/03 02:27:59;;;;;;;4.30;1.95;;;1.30;99.90;;;;;;7374270;19;20026;-64
2023/04/03 02:30:29;;;;;;;8.07;2.35;;;1.30;99.90;;;;;;7375403;19;20451;-64
2023/04/03 02:32:58;;;;;;;4.47;1.92;;;1.20;99.90;;;;;;7377857;19;20081;-64
2023/04/03 02:35:28;;;;;;;4.15;2.00;;;1.30;99.90;;;;;;7375450;19;20086;-64
2023/04/03 02:37:58;;;;;;;3.92;1.85;;;1.20;99.90;;;;;;7377783;19;20022;-64
2023/04/03 02:40:25;;;;;;;4.43;1.85;;;1.20;99.90;;;;;;7369427;19;20019;-64
2023/04/03 02:42:52;;;;;;;5.53;1.90;;;1.20;99.90;;;;;;7373078;19;20026;-63
2023/04/03 02:45:20;;;;;;;7.10;2.70;;;1.10;99.90;;;;;;7369706;19;20781;-64
2023/04/03 02:47:46;;;;;;;3.97;1.88;;;1.10;99.90;;;;;;7366736;19;20015;-65
2023/04/03 02:50:12;;;;;;;5.18;2.10;;;1.10;99.90;;;;;;7367779;19;20486;-65
2023/04/03 02:52:39;;;;;;;4.47;1.83;;;1.10;99.90;;;;;;7369311;19;20039;-64
2023/04/03 02:55:06;;;;;;;6.13;1.88;;;1.00;99.90;;;;;;7371016;19;20082;-64
2023/04/03 02:57:35;;;;;;;5.28;2.03;;;1.00;99.90;;;;;;7370141;19;20022;-65
2023/04/03 03:00:03;;;;;;;6.50;1.80;;;1.00;99.90;;;;;;7373095;19;20015;-65
2023/04/03 03:02:29;;;;;;;6.15;2.25;;;1.00;99.90;;;;;;7371829;19;20023;-64
2023/04/03 03:04:56;;;;;;;4.22;2.40;;;0.90;99.90;;;;;;7372085;19;20019;-64
2023/04/03 03:07:24;;;;;;;4.80;1.98;;;0.90;99.90;;;;;;7367518;19;20018;-65
2023/04/03 03:09:53;;;;;;;6.38;2.03;;;0.90;99.90;;;;;;7373201;19;20038;-69
2023/04/03 03:12:21;;;;;;;4.63;2.10;;;0.90;99.90;;;;;;7370803;19;20015;-65
2023/04/03 03:14:52;;;;;;;6.07;2.30;;;0.80;99.90;;;;;;7373408;19;20018;-65
2023/04/03 03:17:18;;;;;;;5.32;2.00;;;0.80;99.90;;;;;;7373489;19;20039;-65
2023/04/03 03:19:45;;;;;;;5.22;2.20;;;0.80;99.90;;;;;;7373170;19;20600;-65
2023/04/03 03:22:12;;;;;;;7.25;2.28;;;0.80;99.90;;;;;;7370458;19;20051;-65
2023/04/03 03:24:38;;;;;;;7.85;2.30;;;0.70;99.90;;;;;;7374946;19;20014;-65
2023/04/03 03:27:05;;;;;;;4.38;2.22;;;0.70;99.90;;;;;;7370696;19;20390;-69
2023/04/03 03:29:34;;;;;;;8.07;2.80;;;0.70;99.90;;;;;;7373201;19;20022;-69
2023/04/03 03:32:04;;;;;;;6.35;2.03;;;0.60;99.90;;;;;;7369986;19;20478;-69
2023/04/03 03:34:30;;;;;;;5.65;2.40;;;0.60;99.90;;;;;;7372566;19;20024;-70
2023/04/03 03:37:10;;;;;;;4.80;2.22;;;0.60;99.90;;;;;;7367474;19;20025;-69
2023/04/03 03:39:37;;;;;;;6.88;2.30;;;0.50;99.90;;;;;;7371811;19;20015;-69
2023/04/03 03:42:04;;;;;;;6.15;2.55;;;0.50;99.90;;;;;;7368996;19;20011;-69
2023/04/03 03:44:31;;;;;;;5.22;2.28;;;0.50;99.90;;;;;;7371638;19;20015;-69
2023/04/03 03:47:02;;;;;;;5.40;2.03;;;0.40;99.90;;;;;;7368818;19;20664;-69
2023/04/03 03:49:43;;;;;;;5.05;2.38;;;0.40;99.90;;;;;;7366061;19;20871;-69
2023/04/03 03:52:10;;;;;;;3.95;2.22;;;0.40;99.90;;;;;;7366335;19;20033;-69
2023/04/03 03:54:38;;;;;;;5.72;2.50;;;0.40;99.90;;;;;;7370673;19;20486;-65
2023/04/03 03:57:06;;;;;;;4.43;2.30;;;0.40;99.90;;;;;;7364797;19;20102;-65
2023/04/03 03:59:37;;;;;;;7.70;2.87;;;0.30;99.90;;;;;;7363221;19;20037;-69
2023/04/03 04:02:04;;;;;;;7.85;2.80;;;0.30;99.90;;;;;;7364751;19;20014;-69
2023/04/03 04:04:31;;;;;;;4.30;2.50;;;0.30;99.90;;;;;;7367813;19;20998;-69
2023/04/03 04:06:57;;;;;;;5.82;2.63;;;0.30;99.90;;;;;;7367316;19;20022;-69
2023/04/03 04:09:24;;;;;;;7.00;2.70;;;0.30;99.90;;;;;;7366155;19;20018;-69
2023/04/03 04:11:50;;;;;;;6.75;2.92;;;0.30;99.90;;;;;;7367137;19;20542;-69
2023/04/03 04:14:17;;;;;;;7.30;2.38;;;0.30;99.90;;;;;;7370285;19;20018;-69
2023/04/03 04:16:44;;;;;;;6.72;2.60;;;0.20;99.90;;;;;;7372051;19;20011;-69
2023/04/03 04:19:15;;;;;;;5.72;2.60;;;0.20;99.90;;;;;;7369712;19;20068;-69
2023/04/03 04:21:43;;;;;;;5.22;2.92;;;0.20;99.90;;;;;;7373198;19;20065;-69
2023/04/03 04:24:10;;;;;;;6.05;2.65;;;0.20;99.90;;;;;;7371696;19;20068;-69
2023/04/03 04:26:37;;;;;;;5.28;2.50;;;0.20;99.90;;;;;;7365210;19;20521;-69
2023/04/03 04:29:04;;;;;;;7.35;2.70;;;0.10;99.90;;;;;;7362659;19;20022;-70
2023/04/03 04:31:34;;;;;;;8.35;2.72;;;0.10;99.90;;;;;;7371556;19;20084;-65
2023/04/03 04:34:00;;;;;;;6.70;3.17;;;0.10;99.90;;;;;;7371046;19;20022;-65
2023/04/03 04:36:27;;;;;;;6.72;2.53;;;0.10;99.90;;;;;;7373903;19;20010;-69
2023/04/03 04:38:53;;;;;;;5.95;2.95;;;0.10;99.90;;;;;;7368859;19;20839;-65
2023/04/03 04:41:22;;;;;;;6.63;2.83;;;0.10;99.90;;;;;;7367399;19;20023;-65
2023/04/03 04:43:52;;;;;;;6.70;3.40;;;0.00;99.90;;;;;;7367033;19;20120;-66
2023/04/03 04:46:19;;;;;;;8.57;3.80;;;0.00;99.90;;;;;;7364903;19;20018;-66
2023/04/03 04:48:50;;;;;;;4.85;3.13;;;0.10;99.90;;;;;;7364375;19;20023;-65
2023/04/03 04:51:19;;;;;;;6.20;2.75;;;0.00;99.90;;;;;;7367125;19;20018;-69
2023/04/03 04:53:45;;;;;;;8.07;3.20;;;0.00;99.90;;;;;;7364573;19;20202;-69
2023/04/03 04:56:18;;;;;;;6.00;3.20;;;0.00;99.90;;;;;;7363274;19;20039;-69
2023/04/03 04:58:45;;;;;;;5.15;2.83;;;0.00;99.90;;;;;;7360938;19;20019;-69
2023/04/03 05:01:11;;;;;;;6.45;2.75;;;0.00;99.90;;;;;;7362138;19;20018;-70
2023/04/03 05:03:52;;;;;;;7.05;3.40;;;-0.10;99.90;;;;;;7365103;19;20019;-64
2023/04/03 05:06:19;;;;;;;8.00;3.33;;;0.00;99.90;;;;;;7365491;19;20426;-64
2023/04/03 05:08:46;;;;;;;6.40;3.08;;;-0.10;99.90;;;;;;7369066;19;20516;-64
2023/04/03 05:11:13;;;;;;;6.88;3.53;;;-0.10;99.90;;;;;;7368830;19;20442;-65
2023/04/03 05:13:40;;;;;;;9.02;3.60;;;0.00;99.90;;;;;;7378946;19;20580;-64
2023/04/03 05:16:06;;;;;;;9.20;4.00;;;0.00;99.90;;;;;;7376574;19;20015;-63
2023/04/03 05:18:33;;;;;;;9.90;3.33;;;-0.10;99.90;;;;;;7378557;19;20022;-64
2023/04/03 05:21:04;;;;;;;6.53;3.30;;;0.00;99.90;;;;;;7373600;19;20061;-66
2023/04/03 05:23:37;;;;;;;5.70;3.38;;;0.00;99.90;;;;;;7377969;19;20267;-64
2023/04/03 05:26:04;;;;;;;8.27;3.58;;;0.00;99.90;;;;;;7372710;19;20014;-64
2023/04/03 05:28:31;;;;;;;7.00;3.60;;;0.00;99.90;;;;;;7367528;19;20445;-64
2023/04/03 05:30:58;;;;;;;5.88;3.55;;;0.00;99.90;;;;;;7371135;19;20022;-64
2023/04/03 05:33:29;;;;;;;9.00;3.83;;;0.00;99.90;;;;;;7374831;19;20902;-64
2023/04/03 05:36:03;;;;;;;7.40;3.75;;;0.10;99.90;;;;;;7373473;19;20041;-63
2023/04/03 05:38:38;;;;;;;10.27;4.38;;;0.00;99.90;;;;;;7376211;19;20367;-63
2023/04/03 05:41:15;;;;;;;10.50;4.35;;;0.10;99.90;;;;;;7377550;19;20047;-64
2023/04/03 05:43:44;;;;;;;7.70;3.60;;;0.20;99.90;;;;;;7375932;19;20022;-65
2023/04/03 05:46:13;;;;;;;6.90;3.53;;;0.20;99.90;;;;;;7375788;19;20789;-64
2023/04/03 05:48:42;;;;;;;8.50;3.22;;;0.30;99.90;;;;;;7375939;19;20033;-69
2023/04/03 05:51:21;;;;;;;7.68;4.00;;;0.30;99.90;;;;;;7373683;19;20040;-70
2023/04/03 05:53:56;;;;;;;7.13;3.58;;;0.40;99.90;;;;;;7375842;19;20036;-64
2023/04/03 05:56:22;;;;;;;11.18;3.95;;;0.50;99.90;;;;;;7376798;19;20018;-63
2023/04/03 05:58:49;;;;;;;14.45;6.15;;;0.60;99.90;;;;;;7376185;19;20441;-64
2023/04/03 06:01:16;;;;;;;7.88;3.92;;;0.70;99.90;;;;;;7373939;19;20038;-65
2023/04/03 06:03:43;;;;;;;7.65;3.50;;;0.80;99.90;;;;;;7378839;19;20479;-63
2023/04/03 06:06:14;;;;;;;8.02;3.30;;;0.90;99.90;;;;;;7376973;19;20007;-63
2023/04/03 06:08:40;;;;;;;12.00;2.92;;;1.00;99.90;;;;;;7373433;19;20035;-63
2023/04/03 06:11:08;;;;;;;5.85;2.72;;;1.10;99.90;;;;;;7374179;19;20019;-69
2023/04/03 06:13:35;;;;;;;7.03;3.25;;;1.20;99.90;;;;;;7375599;19;20035;-70
2023/04/03 06:16:02;;;;;;;8.85;3.00;;;1.30;99.90;;;;;;7375761;19;20048;-63
2023/04/03 06:18:28;;;;;;;6.57;3.20;;;1.40;99.90;;;;;;7376171;19;20029;-64
2023/04/03 06:20:55;;;;;;;9.15;3.10;;;1.50;99.90;;;;;;7375682;19;20046;-69
2023/04/03 06:23:22;;;;;;;8.00;3.00;;;1.70;99.90;;;;;;7376088;19;20513;-69
2023/04/03 06:25:48;;;;;;;6.88;3.10;;;1.80;99.90;;;;;;7377634;19;20026;-68
2023/04/03 06:28:14;;;;;;;6.20;2.67;;;1.90;99.90;;;;;;7375203;19;20014;-69
2023/04/03 06:30:41;;;;;;;6.68;2.83;;;2.00;99.90;;;;;;7375829;19;20085;-69
2023/04/03 06:33:07;;;;;;;14.82;8.15;;;2.10;99.90;;;;;;7374165;19;20018;-64
2023/04/03 06:35:34;;;;;;;7.65;2.70;;;2.30;99.90;;;;;;7377695;19;20018;-64
2023/04/03 06:38:01;;;;;;;8.45;2.90;;;2.40;99.90;;;;;;7372149;19;20015;-69
2023/04/03 06:40:27;;;;;;;7.40;2.47;;;2.70;99.90;;;;;;7373972;19;20018;-74
2023/04/03 06:42:54;;;;;;;5.43;2.45;;;2.80;99.90;;;;;;7372994;19;20380;-70
2023/04/03 06:45:21;;;;;;;6.75;2.55;;;2.90;99.90;;;;;;7374488;19;20019;-65
2023/04/03 06:47:48;;;;;;;8.10;2.80;;;3.10;99.90;;;;;;7371709;19;20019;-69
2023/04/03 06:50:15;;;;;;;6.32;2.35;;;3.10;99.90;;;;;;7373896;19;20833;-70
2023/04/03 06:52:41;;;;;;;7.57;2.50;;;3.30;99.90;;;;;;7373852;19;20023;-69
2023/04/03 06:55:09;;;;;;;6.18;2.35;;;3.50;99.90;;;;;;7373084;19;20018;-64
2023/04/03 06:57:36;;;;;;;5.93;2.42;;;3.60;99.90;;;;;;7372813;19;20027;-68
2023/04/03 07:00:04;;;;;;;5.88;2.60;;;3.70;99.90;;;;;;7375303;19;20025;-69
2023/04/03 07:02:31;;;;;;;6.63;2.20;;;3.80;99.90;;;;;;7373925;19;20018;-64
2023/04/03 07:05:05;;;;;;;8.30;3.08;;;4.10;99.90;;;;;;7376803;19;20019;-68
2023/04/03 07:07:41;;;;;;;8.02;2.28;;;4.50;99.90;;;;;;7368977;19;20018;-64
2023/04/03 07:10:08;;;;;;;7.80;2.55;;;4.70;99.90;;;;;;7374995;19;20023;-68
2023/04/03 07:12:37;;;;;;;6.80;2.60;;;4.80;99.90;;;;;;7370915;19;20014;-64
2023/04/03 07:15:05;;;;;;;8.60;2.28;;;5.00;99.90;;;;;;7370720;19;20014;-69
2023/04/03 07:17:32;;;;;;;8.93;3.33;;;5.10;99.90;;;;;;7373182;19;20038;-64
2023/04/03 07:19:59;;;;;;;8.05;2.55;;;5.40;99.90;;;;;;7375822;19;20067;-64
2023/04/03 07:22:31;;;;;;;6.80;3.97;;;5.80;99.90;;;;;;7371213;19;20523;-64
2023/04/03 07:24:58;;;;;;;13.40;8.35;;;6.10;99.90;;;;;;7375832;19;20577;-69
2023/04/03 07:27:28;;;;;;;5.30;1.95;;;6.20;99.90;;;;;;7368817;19;20026;-69
2023/04/03 07:29:55;;;;;;;13.65;2.78;;;6.50;99.90;;;;;;7371947;19;20014;-69
2023/04/03 07:32:22;;;;;;;3.83;1.65;;;6.70;99.90;;;;;;7368500;19;20014;-69
2023/04/03 07:34:48;;;;;;;8.43;2.42;;;6.90;99.90;;;;;;7372503;19;20022;-64
2023/04/03 07:37:15;;;;;;;6.30;2.10;;;6.90;99.90;;;;;;7369581;19;20037;-69
2023/04/03 07:39:44;;;;;;;5.00;1.85;;;7.50;99.90;;;;;;7373077;19;20022;-69
2023/04/03 07:42:12;;;;;;;5.00;1.95;;;7.80;99.90;;;;;;7372121;19;20071;-69
2023/04/03 07:44:38;;;;;;;4.38;1.90;;;8.20;99.90;;;;;;7375532;19;20006;-63
2023/04/03 07:47:05;;;;;;;6.35;2.08;;;8.20;99.90;;;;;;7376794;19;20770;-65
2023/04/03 07:49:32;;;;;;;5.70;2.00;;;8.40;99.90;;;;;;7377302;19;20054;-64
2023/04/03 07:51:59;;;;;;;5.85;2.00;;;8.50;99.90;;;;;;7374342;19;20870;-64
2023/04/03 07:54:25;;;;;;;4.13;1.48;;;8.60;99.90;;;;;;7372020;19;20371;-64
2023/04/03 07:56:52;;;;;;;6.85;1.67;;;8.80;99.90;;;;;;7375148;19;20026;-64
2023/04/03 07:59:18;;;;;;;5.80;1.88;;;8.90;99.00;;;;;;7373672;19;20015;-65
2023/04/03 08:01:45;;;;;;;3.55;1.50;;;9.20;99.70;;;;;;7371633;19;20026;-70
2023/04/03 08:04:11;;;;;;;4.75;1.42;;;9.50;82.10;;;;;;7371334;19;20546;-64
2023/04/03 08:06:38;;;;;;;6.25;1.92;;;9.60;73.10;;;;;;7372595;19;20384;-69
2023/04/03 08:09:04;;;;;;;4.57;1.63;;;9.50;74.00;;;;;;7366488;19;20484;-64
2023/04/03 08:11:31;;;;;;;6.13;2.03;;;9.40;69.70;;;;;;7368058;19;20513;-69
2023/04/03 08:13:57;;;;;;;2.63;1.30;;;9.70;70.30;;;;;;7370048;19;20015;-69
2023/04/03 08:16:28;;;;;;;5.20;2.20;;;9.80;68.30;;;;;;7367335;19;20311;-70
2023/04/03 08:18:54;;;;;;;5.38;1.73;;;10.00;67.30;;;;;;7368904;19;20035;-72
2023/04/03 08:21:24;;;;;;;6.90;1.60;;;10.10;66.70;;;;;;7368571;19;20025;-70
2023/04/03 08:23:52;;;;;;;2.30;1.23;;;10.30;65.60;;;;;;7366636;19;20018;-70
2023/04/03 08:26:21;;;;;;;6.03;2.10;;;10.50;66.20;;;;;;7365699;19;20026;-70
2023/04/03 08:28:48;;;;;;;5.43;1.73;;;10.40;61.80;;;;;;7371321;19;20014;-70
2023/04/03 08:31:18;;;;;;;3.85;1.42;;;10.30;61.20;;;;;;7367637;19;20022;-69
2023/04/03 08:33:44;;;;;;;5.72;1.70;;;10.50;61.50;;;;;;7370252;19;20019;-70
2023/04/03 08:36:26;;;;;;;5.32;1.95;;;10.70;61.90;;;;;;7369450;19;20015;-69
2023/04/03 08:38:53;;;;;;;7.07;1.65;;;11.20;59.20;;;;;;7369002;19;20018;-70
2023/04/03 08:41:33;;;;;;;5.43;1.45;;;11.10;58.40;;;;;;7363908;19;20015;-69
2023/04/03 08:44:26;;;;;;;5.80;2.92;;;10.70;56.90;;;;;;7366759;19;20050;-68
2023/04/03 08:54:56;;;;;;;2.97;1.10;;;11.80;54.10;;;;;;7375691;19;20014;-69
2023/04/03 08:57:40;;;;;;;3.90;1.50;;;11.90;52.10;;;;;;7371807;19;20022;-68
2023/04/03 09:00:13;;;;;;;3.00;1.00;;;11.90;51.70;;;;;;7373975;19;20307;-69
2023/04/03 09:02:47;;;;;;;2.72;1.30;;;12.10;52.60;;;;;;7369835;19;20021;-70
2023/04/03 09:05:20;;;;;;;6.30;2.08;;;12.00;52.50;;;;;;7373210;19;20015;-70
2023/04/03 09:08:00;;;;;;;14.10;11.43;;;12.20;51.40;;;;;;7370327;19;20039;-69
2023/04/03 09:10:34;;;;;;;4.95;1.70;;;12.60;53.10;;;;;;7375276;19;20010;-69
2023/04/03 09:13:41;;;;;;;5.03;1.70;;;12.30;52.00;;;;;;7373897;19;20019;-69
2023/04/03 09:16:36;;;;;;;2.47;0.90;;;12.60;50.80;;;;;;7372707;19;20025;-69
2023/04/03 09:19:28;;;;;;;3.92;1.30;;;13.00;48.00;;;;;;7373455;19;20609;-69
2023/04/03 09:21:57;;;;;;;4.45;2.50;;;13.10;46.50;;;;;;7377310;19;20486;-69
2023/04/03 09:24:25;;;;;;;5.60;4.20;;;13.20;47.30;;;;;;7373508;19;20121;-69
2023/04/03 09:26:59;;;;;;;10.30;6.78;;;13.30;46.30;;;;;;7376086;19;20412;-70
2023/04/03 09:29:26;;;;;;;5.25;1.38;;;13.60;46.10;;;;;;7372257;19;20022;-71
2023/04/03 09:32:12;;;;;;;4.47;1.40;;;13.80;47.20;;;;;;7374490;19;20018;-70
2023/04/03 09:34:41;;;;;;;3.65;1.20;;;14.10;46.20;;;;;;7371742;19;20043;-69
2023/04/03 09:37:08;;;;;;;4.35;0.98;;;14.30;46.30;;;;;;7373140;19;20019;-69
2023/04/03 09:39:55;;;;;;;2.88;0.85;;;14.40;43.70;;;;;;7368808;19;20796;-70
2023/04/03 09:42:27;;;;;;;3.20;1.10;;;14.20;44.60;;;;;;7372547;19;20015;-65
2023/04/03 09:44:57;;;;;;;2.70;1.20;;;14.20;44.40;;;;;;7371395;19;20819;-68
2023/04/03 09:47:33;;;;;;;3.92;0.85;;;14.80;44.00;;;;;;7370686;19;20025;-64
2023/04/03 09:50:19;;;;;;;5.18;1.40;;;14.70;44.10;;;;;;7372254;19;20018;-64
2023/04/03 09:52:49;;;;;;;4.32;2.17;;;15.10;43.20;;;;;;7372320;19;20880;-64
2023/04/03 09:55:17;;;;;;;3.53;0.98;;;15.00;43.00;;;;;;7372725;19;20568;-69
2023/04/03 09:57:46;;;;;;;5.70;3.63;;;15.10;42.50;;;;;;7370038;19;20014;-69
2023/04/03 10:00:26;;;;;;;2.75;1.20;;;14.90;42.70;;;;;;7365505;19;20015;-67
2023/04/03 10:02:56;;;;;;;5.97;1.38;;;15.00;41.90;;;;;;7369043;19;20057;-69
2023/04/03 10:05:28;;;;;;;4.32;1.33;;;15.10;42.30;;;;;;7368938;19;20082;-70
2023/04/03 10:08:13;;;;;;;2.28;0.90;;;15.40;42.50;;;;;;7370051;19;20019;-69
2023/04/03 10:10:41;;;;;;;3.28;1.10;;;15.10;41.30;;;;;;7368673;19;20024;-68
2023/04/03 10:13:16;;;;;;;2.60;1.10;;;15.40;42.00;;;;;;7370750;19;20612;-69
2023/04/03 10:15:55;;;;;;;3.35;0.88;;;15.30;41.80;;;;;;7369108;19;20489;-69
2023/04/03 10:18:31;;;;;;;1.85;0.90;;;15.60;41.30;;;;;;7373900;19;20021;-69
2023/04/03 10:21:06;;;;;;;4.47;1.08;;;15.40;40.90;;;;;;7374192;19;20021;-69
2023/04/03 10:23:38;;;;;;;1.67;0.90;;;15.00;39.90;;;;;;7375178;19;20042;-68
2023/04/03 10:26:05;;;;;;;2.60;0.93;;;15.20;39.20;;;;;;7375019;19;20830;-69
2023/04/03 10:28:55;;;;;;;9.68;8.02;;;14.60;38.90;;;;;;7367318;19;20050;-68
2023/04/03 10:31:26;;;;;;;3.45;0.90;;;14.90;39.20;;;;;;7370913;19;20018;-68
2023/04/03 10:34:17;;;;;;;12.55;8.32;;;15.10;38.80;;;;;;7375337;19;20023;-68
2023/04/03 10:37:11;;;;;;;2.88;1.40;;;16.00;41.60;;;;;;7374448;19;20538;-69
2023/04/03 10:40:00;;;;;;;2.40;0.82;;;16.40;39.70;;;;;;7378740;19;20014;-70
2023/04/03 10:43:02;;;;;;;4.57;1.63;;;16.10;38.30;;;;;;7372586;19;20028;-68
2023/04/03 10:45:42;;;;;;;4.60;1.85;;;15.90;38.10;;;;;;7371753;19;20818;-68
2023/04/03 10:48:17;;;;;;;9.95;7.10;;;15.70;37.10;;;;;;7369336;19;20018;-68
2023/04/03 10:50:52;;;;;;;2.28;0.73;;;16.00;38.80;;;;;;7370736;19;20040;-69
2023/04/03 10:53:21;;;;;;;3.28;0.88;;;15.80;39.10;;;;;;7374046;19;20043;-70
2023/04/03 10:56:32;;;;;;;7.28;4.03;;;15.80;38.60;;;;;;7368757;19;20054;-67
2023/04/03 10:59:22;;;;;;;2.20;0.90;;;16.30;38.90;;;;;;7371558;19;20011;-69
2023/04/03 11:01:54;;;;;;;2.63;0.90;;;16.00;37.10;;;;;;7371579;19;20251;-69
2023/04/03 11:04:22;;;;;;;1.90;1.10;;;16.50;38.90;;;;;;7366401;19;20025;-63
2023/04/03 11:07:08;;;;;;;9.07;6.28;;;16.50;39.60;;;;;;7369631;19;20504;-70
2023/04/03 11:09:44;;;;;;;4.53;2.33;;;17.10;39.20;;;;;;7368743;19;20588;-63
2023/04/03 11:12:19;;;;;;;3.30;1.05;;;16.50;38.10;;;;;;7365741;19;20078;-69
2023/04/03 11:14:48;;;;;;;6.75;4.28;;;16.30;36.30;;;;;;7369370;19;20110;-63
2023/04/03 11:17:43;;;;;;;2.47;0.93;;;16.50;38.50;;;;;;7372066;19;20041;-63
2023/04/03 11:20:09;;;;;;;6.93;3.17;;;16.40;36.90;;;;;;7367022;19;20884;-63
2023/04/03 11:22:50;;;;;;;3.55;1.55;;;16.60;37.00;;;;;;7366275;19;20058;-69
2023/04/03 11:25:25;;;;;;;2.92;1.33;;;16.80;36.00;;;;;;7365627;19;20029;-68
2023/04/03 11:28:06;;;;;;;2.47;1.10;;;16.40;35.90;;;;;;7363588;19;20019;-68
2023/04/03 11:30:38;;;;;;;2.53;0.98;;;16.30;36.70;;;;;;7362035;19;20018;-69
2023/04/03 11:33:36;;;;;;;2.78;1.00;;;16.20;36.10;;;;;;7368391;19;20021;-69
2023/04/03 11:36:31;;;;;;;15.98;12.50;;;15.70;37.50;;;;;;7366468;19;20015;-69
2023/04/03 11:39:07;;;;;;;13.80;10.10;;;16.00;36.60;;;;;;7368483;19;20842;-63
2023/04/03 11:41:34;;;;;;;7.65;5.72;;;16.50;38.30;;;;;;7369780;19;20023;-69
2023/04/03 11:44:37;;;;;;;5.63;1.55;;;16.80;38.30;;;;;;7368112;19;20558;-69
2023/04/03 11:47:11;;;;;;;3.22;1.10;;;17.00;36.90;;;;;;7371198;19;20490;-69
2023/04/03 11:49:55;;;;;;;7.47;4.43;;;17.00;35.50;;;;;;7370024;19;20029;-69
2023/04/03 11:52:43;;;;;;;5.25;1.08;;;16.60;35.40;;;;;;7370466;19;20022;-63
2023/04/03 11:55:21;;;;;;;19.05;13.40;;;15.80;35.70;;;;;;7371708;19;20014;-63
2023/04/03 11:58:16;;;;;;;2.45;1.25;;;16.70;37.50;;;;;;7369905;19;20022;-63
2023/04/03 12:01:09;;;;;;;4.43;2.55;;;16.40;37.20;;;;;;7371049;19;20081;-69
2023/04/03 12:03:42;;;;;;;3.28;0.90;;;16.50;37.90;;;;;;7369162;19;20820;-69
2023/04/03 12:06:13;;;;;;;5.22;1.40;;;16.40;36.30;;;;;;7371767;19;20018;-63
2023/04/03 12:08:39;;;;;;;2.97;1.20;;;16.90;37.10;;;;;;7368271;19;20593;-69
2023/04/03 12:11:08;;;;;;;2.75;1.27;;;16.90;38.20;;;;;;7370560;19;20116;-63
2023/04/03 12:13:37;;;;;;;2.25;0.90;;;16.90;37.80;;;;;;7366566;19;20023;-63
2023/04/03 12:16:05;;;;;;;2.75;1.20;;;17.10;37.50;;;;;;7369296;19;20029;-63
2023/04/03 12:18:58;;;;;;;2.60;1.20;;;16.50;37.50;;;;;;7373092;19;20027;-63
2023/04/03 12:21:27;;;;;;;3.58;1.08;;;16.50;38.40;;;;;;7367727;19;20021;-63
2023/04/03 12:24:08;;;;;;;8.25;4.22;;;16.50;38.50;;;;;;7369727;19;20100;-69
2023/04/03 12:26:59;;;;;;;3.38;0.98;;;16.60;37.80;;;;;;7369093;19;20379;-63
2023/04/03 12:29:34;;;;;;;3.00;1.33;;;16.10;36.90;;;;;;7367239;19;20026;-65
2023/04/03 12:32:06;;;;;;;3.92;1.10;;;16.30;37.70;;;;;;7370531;19;20034;-63
2023/04/03 12:35:09;;;;;;;3.08;0.77;;;16.30;38.30;;;;;;7365616;19;20069;-69
2023/04/03 12:37:55;;;;;;;3.08;1.30;;;16.40;36.90;;;;;;7367465;19;20055;-63
2023/04/03 12:40:52;;;;;;;3.55;1.30;;;17.40;37.40;;;;;;7370074;19;20022;-63
2023/04/03 12:43:31;;;;;;;3.42;1.55;;;17.30;37.10;;;;;;7370811;19;20078;-68
2023/04/03 12:46:06;;;;;;;3.50;1.50;;;17.20;36.80;;;;;;7367546;19;20027;-63
2023/04/03 12:48:45;;;;;;;2.63;1.10;;;17.40;36.10;;;;;;7368471;19;20383;-63
2023/04/03 12:51:20;;;;;;;3.15;1.13;;;17.30;36.10;;;;;;7368966;19;20022;-63
2023/04/03 12:53:49;;;;;;;2.83;1.38;;;18.20;36.20;;;;;;7370273;19;20477;-63
2023/04/03 12:56:18;;;;;;;4.90;1.27;;;18.30;36.90;;;;;;7366349;19;20218;-69
2023/04/03 12:58:45;;;;;;;4.50;2.55;;;18.50;36.80;;;;;;7363735;19;21197;-68
2023/04/03 13:01:18;;;;;;;4.35;1.73;;;18.90;36.20;;;;;;7367540;19;20044;-63
2023/04/03 13:03:56;;;;;;;5.38;1.58;;;17.70;36.10;;;;;;7371808;19;20014;-68
2023/04/03 13:06:37;;;;;;;2.92;1.08;;;18.10;35.10;;;;;;7369284;19;20018;-68
2023/04/03 13:09:05;;;;;;;3.60;1.52;;;19.10;36.90;;;;;;7371165;19;20025;-68
2023/04/03 13:11:40;;;;;;;4.60;2.67;;;19.30;37.20;;;;;;7366156;19;20484;-63
2023/04/03 13:14:17;;;;;;;4.07;1.40;;;19.50;37.60;;;;;;7367459;19;20022;-69
2023/04/03 13:16:56;;;;;;;7.32;4.38;;;19.20;34.80;;;;;;7369829;19;20070;-63
2023/04/03 13:19:28;;;;;;;7.78;5.60;;;19.50;36.20;;;;;;7368797;19;20026;-64
2023/04/03 13:22:05;;;;;;;9.68;5.82;;;19.80;35.70;;;;;;7367632;19;20047;-63
2023/04/03 13:24:35;;;;;;;5.03;2.58;;;19.30;36.40;;;;;;7367682;19;20145;-63